Date,TemperatureHighF,TemperatureAvgF,TemperatureLowF,DewpointHighF,DewpointAvgF,DewpointLowF,HumidityHigh,HumidityAvg,HumidityLow,PressureMaxIn,PressureMinIn,WindSpeedMaxMPH,WindSpeedAvgMPH,GustSpeedMaxMPH,PrecipitationSumIn
2013-1-1,32,24,14,31,22,12,99,91,77,30.22,30.10,7,2,11,0.00
2013-1-2,22,13,5,12,6,2,92,73,45,30.31,30.20,4,1,9,0.00
2013-1-3,29,22,14,25,16,4,86,76,61,30.34,30.22,11,4,18,0.00
2013-1-4,28,22,14,20,16,11,89,78,67,30.37,30.31,12,5,23,0.00
2013-1-5,36,24,19,27,20,17,94,85,69,30.37,30.25,7,2,12,0.00
2013-1-6,35,26,24,32,23,19,91,85,81,30.40,30.05,14,6,25,0.00
2013-1-7,35,26,15,26,22,14,97,84,69,30.48,30.26,11,3,21,0.00
2013-1-8,42,32,22,30,26,20,92,79,59,30.32,30.24,7,3,12,0.00
2013-1-9,46,40,32,38,34,28,91,79,68,30.56,30.20,11,4,21,0.01
2013-1-10,45,35,27,42,31,24,99,84,68,30.57,30.09,11,4,19,0.05
2013-1-11,60,53,45,55,49,42,99,87,67,30.09,29.87,14,5,24,0.74
2013-1-12,64,54,48,55,51,46,99,90,69,30.05,29.79,9,2,17,1.15
2013-1-13,54,36,22,54,36,18,99,97,86,30.26,29.73,12,4,19,1.09
2013-1-14,22,19,16,19,15,12,90,83,75,30.50,30.25,0,0,0,0.00
2013-1-15,30,24,18,22,18,16,93,80,61,30.45,30.15,0,0,0,0.01
2013-1-16,35,28,22,25,22,19,96,78,53,30.16,30.00,12,2,18,0.00
2013-1-17,38,30,22,30,24,15,92,76,55,30.46,30.12,11,3,16,0.00
2013-1-18,39,30,19,24,19,14,86,67,46,30.52,30.16,11,4,24,0.00
2013-1-19,52,43,38,36,29,23,77,57,45,30.17,29.91,14,6,30,0.00
2013-1-20,43,26,20,35,14,7,77,60,49,30.32,29.94,23,8,42,0.00
2013-1-21,20,14,7,12,5,-5,91,67,48,30.30,30.17,21,9,29,0.00
2013-1-22,14,8,3,-1,-3,-5,76,60,44,30.43,30.30,16,7,25,0.00
2013-1-23,21,15,9,14,5,-2,80,63,43,30.39,30.15,13,3,24,0.00
2013-1-24,22,17,10,13,7,0,85,65,41,30.64,30.20,9,4,15,0.00
2013-1-25,25,22,17,20,15,7,92,77,56,30.46,30.08,9,4,15,0.00
2013-1-26,29,21,16,18,14,11,86,75,58,30.48,30.14,8,2,14,0.00
2013-1-27,37,26,16,37,22,13,99,83,70,30.47,30.11,11,4,17,0.21
2013-1-28,52,47,37,51,46,37,99,98,94,30.14,30.01,11,4,21,0.08
2013-1-29,62,56,49,58,54,48,99,95,87,30.04,29.49,16,6,27,0.01
2013-1-30,63,46,27,60,44,23,99,93,80,29.65,29.32,20,8,34,0.64
2013-1-31,27,20,9,24,14,1,93,76,62,30.14,29.65,21,12,35,0.00
2013-2-1,15,10,4,8,2,-3,78,70,61,30.44,30.14,17,7,28,0.00
2013-2-2,26,21,15,24,18,8,97,86,70,30.31,30.03,11,4,18,0.00
2013-2-3,23,17,10,20,12,7,91,83,77,30.14,30.00,14,5,24,0.00
2013-2-4,37,27,19,30,21,14,89,78,66,30.13,29.85,8,2,16,0.00
2013-2-5,36,28,20,32,24,19,96,87,72,30.08,29.88,13,3,17,0.00
2013-2-6,39,32,28,28,23,20,88,72,51,30.31,30.08,10,3,14,0.00
2013-2-7,54,40,30,41,32,26,99,74,44,30.25,29.86,8,3,15,0.13
2013-2-8,40,33,29,40,29,21,99,85,68,30.41,29.87,13,6,22,0.01
2013-2-9,39,30,21,26,22,19,95,74,52,30.46,30.23,11,3,15,0.00
2013-2-10,50,41,32,49,35,23,99,78,63,30.23,29.75,15,5,30,0.06
2013-2-11,50,39,31,49,31,24,99,75,61,30.09,29.73,19,9,37,0.00
2013-2-12,42,32,27,31,26,22,93,80,62,30.18,30.00,13,4,19,0.00
2013-2-13,45,32,25,30,26,24,96,79,51,30.00,29.83,8,2,13,0.00
2013-2-14,48,38,33,37,33,28,98,82,65,30.04,29.84,17,5,27,0.00
2013-2-15,34,30,21,30,25,16,95,83,60,30.22,30.03,10,3,16,0.00
2013-2-16,24,21,17,20,12,5,90,70,49,30.19,30.13,14,6,24,0.00
2013-2-17,32,21,9,14,10,4,90,64,33,30.28,30.17,7,2,11,0.00
2013-2-18,57,39,24,43,26,12,92,59,41,30.20,29.64,20,6,33,0.08
2013-2-19,45,25,18,44,19,9,99,77,63,30.17,29.62,24,13,40,0.07
2013-2-20,23,17,10,13,9,3,78,69,58,30.37,30.17,21,6,28,0.00
2013-2-21,28,24,19,23,18,13,96,76,66,30.39,30.08,14,5,29,0.00
2013-2-22,35,32,25,35,31,23,99,96,88,30.09,29.91,15,4,24,0.06
2013-2-23,32,28,23,29,22,21,92,79,68,30.05,29.99,11,5,20,0.00
2013-2-24,38,29,21,24,21,18,92,74,50,30.21,30.02,10,3,14,0.00
2013-2-25,44,33,24,28,25,21,93,74,48,30.23,29.98,11,3,17,0.00
2013-2-26,39,34,32,39,32,25,99,91,73,29.98,29.47,14,3,22,0.63
2013-2-27,40,34,31,40,34,30,99,97,88,29.74,29.53,13,6,24,0.05
2013-2-28,38,34,31,34,32,30,99,95,81,30.03,29.71,11,6,19,0.05
2013-3-1,34,31,28,32,28,21,99,89,75,30.14,30.01,6,3,12,0.01
2013-3-2,31,28,24,24,19,16,79,69,56,30.16,30.11,8,4,15,0.00
2013-3-3,33,27,22,22,20,16,89,74,49,30.16,30.10,9,4,14,0.00
2013-3-4,38,29,18,30,21,15,93,72,47,30.20,30.04,8,3,14,0.00
2013-3-5,35,32,27,33,31,27,99,95,86,30.07,29.73,11,4,22,0.01
2013-3-6,35,30,26,30,28,25,99,92,74,30.31,29.82,10,2,15,0.00
2013-3-7,37,32,29,30,28,24,98,84,71,30.45,30.30,8,3,11,0.13
2013-3-8,41,32,21,27,23,19,93,72,48,30.54,30.42,6,2,11,0.00
2013-3-9,50,40,30,35,29,23,83,66,50,30.43,30.03,11,5,16,0.00
2013-3-10,65,56,49,39,35,30,58,46,28,30.03,29.81,12,6,26,0.00
2013-3-11,57,46,33,51,42,30,99,88,50,29.91,29.67,17,6,30,0.18
2013-3-12,40,34,31,32,27,23,99,79,51,30.08,29.91,16,7,26,0.00
2013-3-13,32,28,25,30,20,13,95,71,51,30.37,30.06,17,8,24,0.00
2013-3-14,42,30,20,29,19,6,88,65,24,30.39,30.20,9,3,14,0.00
2013-3-15,50,38,29,40,33,29,99,83,57,30.20,29.84,7,2,13,0.01
2013-3-16,44,39,33,41,37,29,99,94,83,30.12,29.68,9,3,15,0.00
2013-3-17,37,32,29,30,24,20,88,72,56,30.23,30.06,11,5,20,0.00
2013-3-18,41,35,31,41,34,26,99,96,79,30.06,29.62,15,4,27,0.11
2013-3-19,39,30,24,27,16,9,81,56,29,30.15,29.88,23,11,40,0.00
2013-3-20,31,26,22,18,11,3,73,55,34,30.14,30.06,17,8,29,0.00
2013-3-21,34,24,12,16,11,6,89,59,32,30.09,30.02,12,5,21,0.00
2013-3-22,44,30,18,20,14,9,85,54,24,30.12,30.05,9,2,14,0.00
2013-3-23,47,36,28,25,18,12,70,51,24,30.14,29.99,7,2,12,0.00
2013-3-24,34,31,28,32,27,22,99,85,68,30.01,29.55,12,4,23,0.05
2013-3-25,35,31,27,33,29,27,99,93,81,30.04,29.58,10,6,14,0.04
2013-3-26,39,34,31,31,29,25,99,84,58,30.29,30.04,11,5,20,0.00
2013-3-27,43,34,26,27,24,18,88,67,42,30.36,30.28,14,5,23,0.00
2013-3-28,46,36,27,26,23,19,86,60,35,30.42,30.35,10,2,14,0.00
2013-3-29,54,41,29,30,27,23,86,59,32,30.38,30.28,10,1,16,0.00
2013-3-30,58,45,28,33,27,20,88,54,24,30.30,29.99,8,2,15,0.00
2013-3-31,61,50,44,46,38,27,99,66,29,29.99,29.81,14,5,26,0.04
2013-4-1,44,38,29,33,18,3,75,48,20,30.21,29.89,14,5,21,0.00
2013-4-2,44,33,23,19,12,-2,74,46,15,30.34,30.20,14,3,21,0.00
2013-4-3,48,36,22,17,10,3,66,37,16,30.50,30.33,9,2,15,0.00
2013-4-4,59,43,29,20,11,-1,59,32,10,30.40,30.05,8,2,11,0.00
2013-4-5,57,46,37,29,18,0,63,36,10,30.23,30.03,10,3,16,0.00
2013-4-6,67,52,36,31,24,18,62,36,17,30.22,29.86,14,6,26,0.00
2013-4-7,70,62,52,42,34,26,57,36,19,30.03,29.83,15,6,27,0.00
2013-4-8,74,63,52,53,49,34,90,63,44,30.04,29.88,15,4,31,0.00
2013-4-9,82,68,52,55,52,46,98,61,30,30.07,29.93,16,3,30,0.00
2013-4-10,79,67,52,64,58,52,99,75,51,29.98,29.84,14,5,33,1.43
2013-4-11,68,60,51,63,59,50,99,95,78,29.86,29.62,17,4,28,1.06
2013-4-12,51,42,38,50,34,28,99,75,55,29.97,29.65,15,8,27,0.09
2013-4-13,46,42,38,35,31,26,84,68,46,30.08,29.97,17,6,25,0.00
2013-4-14,71,55,40,42,37,32,76,54,28,30.10,29.90,11,4,17,0.00
2013-4-15,68,61,53,55,49,40,76,64,45,30.03,29.90,9,4,18,0.01
2013-4-16,62,52,49,53,50,47,99,90,69,30.28,29.95,12,3,17,0.72
2013-4-17,72,56,46,66,53,44,99,88,76,30.29,29.95,13,4,21,0.20
2013-4-18,74,63,54,64,60,53,99,91,61,29.99,29.64,18,5,33,2.19
2013-4-19,60,40,33,60,35,26,99,81,59,30.01,29.61,19,9,36,0.86
2013-4-20,46,38,32,35,26,18,99,64,33,30.48,30.00,16,5,27,0.01
2013-4-21,53,41,29,30,22,12,72,48,22,30.60,30.44,11,3,15,0.00
2013-4-22,69,52,34,34,27,12,91,45,12,30.44,30.18,9,2,13,0.00
2013-4-23,68,58,49,58,45,33,99,66,42,30.19,29.87,10,3,20,0.69
2013-4-24,57,42,37,57,38,28,99,85,50,30.27,29.86,12,5,22,0.80
2013-4-25,52,44,36,36,28,13,83,58,22,30.44,30.25,18,5,29,0.01
2013-4-26,64,49,34,34,29,24,81,51,22,30.50,30.39,8,2,14,0.00
2013-4-27,68,55,42,52,35,20,92,50,20,30.41,30.08,12,3,21,0.06
2013-4-28,60,56,53,59,56,51,99,98,89,30.09,29.91,6,2,10,0.58
2013-4-29,70,60,55,56,53,48,99,80,48,30.06,29.95,8,3,14,0.01
2013-4-30,80,66,52,56,52,50,91,64,38,30.11,30.00,11,4,17,0.00
2013-5-1,86,72,54,54,49,39,87,49,20,30.23,30.10,7,2,13,0.00
2013-5-2,78,70,61,53,50,44,70,50,30,30.26,30.14,9,3,20,0.00
2013-5-3,78,69,62,56,51,32,73,55,26,30.15,29.99,12,4,19,0.00
2013-5-4,72,64,58,51,39,27,77,42,20,30.08,30.01,9,4,18,0.00
2013-5-5,64,58,53,55,49,41,99,73,44,30.07,30.02,8,2,16,0.00
2013-5-6,70,62,54,53,49,43,82,62,49,30.05,29.99,10,2,17,0.00
2013-5-7,76,66,57,55,51,45,88,61,34,30.08,30.01,7,1,13,0.00
2013-5-8,81,68,54,58,50,39,97,58,24,30.10,30.02,6,1,11,0.00
2013-5-9,81,66,59,60,52,32,99,65,18,30.08,29.96,12,2,23,0.59
2013-5-10,69,61,48,64,58,45,99,92,73,29.99,29.88,11,3,17,0.17
2013-5-11,63,49,43,52,44,36,99,83,48,30.09,29.92,14,3,21,0.00
2013-5-12,55,46,38,36,26,11,84,51,17,30.19,30.08,13,3,23,0.00
2013-5-13,65,52,38,32,20,2,74,37,10,30.26,30.16,11,2,21,0.00
2013-5-14,86,68,50,57,41,28,54,38,25,30.17,29.86,11,4,24,0.00
2013-5-15,87,77,70,61,51,41,63,41,23,29.93,29.85,14,6,26,0.00
2013-5-16,84,73,65,65,55,38,95,59,22,30.04,29.90,11,1,18,0.02
2013-5-17,81,68,60,67,62,54,99,84,43,30.13,30.04,10,1,14,0.58
2013-5-18,80,69,62,66,63,57,99,82,46,30.16,30.05,6,1,11,0.00
2013-5-19,87,74,61,68,63,56,99,72,35,30.07,29.93,5,1,10,0.00
2013-5-20,87,78,71,71,66,60,99,68,43,30.02,29.90,8,3,18,0.00
2013-5-21,86,75,64,66,61,53,93,65,32,29.95,29.83,14,4,29,0.05
2013-5-22,77,69,61,65,60,53,98,75,50,29.87,29.78,11,3,23,0.27
2013-5-23,65,58,48,61,54,44,99,86,67,30.23,29.86,11,3,21,0.01
2013-5-24,67,54,43,44,36,16,93,59,14,30.43,30.23,8,2,14,0.00
2013-5-25,66,55,45,45,36,24,76,52,22,30.45,30.29,5,1,11,0.00
2013-5-26,72,60,47,52,42,35,79,54,28,30.37,30.25,4,1,10,0.04
2013-5-27,76,63,54,69,57,49,99,84,59,30.26,29.97,8,3,15,1.57
2013-5-28,82,73,63,67,64,61,99,77,51,30.03,29.95,9,3,22,0.01
2013-5-29,87,78,70,64,58,52,72,53,31,30.10,30.00,11,3,21,0.00
2013-5-30,89,78,69,68,62,59,79,60,37,30.14,30.01,11,3,25,0.04
2013-5-31,76,72,66,71,67,61,99,83,69,30.08,29.93,9,3,16,0.51
2013-6-1,77,70,64,70,64,61,99,84,66,29.99,29.84,14,3,27,0.78
2013-6-2,71,64,55,64,58,48,99,84,65,30.08,29.86,10,3,20,0.12
2013-6-3,70,58,46,49,42,29,91,60,23,30.17,30.07,7,2,11,0.00
2013-6-4,76,62,48,49,41,29,90,54,18,30.23,30.14,8,2,14,0.00
2013-6-6,76,72,66,57,54,53,67,55,48,29.92,29.88,4,1,7,0.00
2013-6-7,75,66,58,57,53,49,91,66,42,29.98,29.91,6,1,14,0.00
2013-6-8,80,68,58,59,52,47,85,59,35,30.10,29.97,6,1,10,0.00
2013-6-9,85,73,63,67,58,46,93,63,27,30.11,29.92,7,2,16,0.01
2013-6-10,78,70,64,68,63,57,99,82,49,29.93,29.85,8,3,17,0.89
2013-6-11,86,73,63,70,64,56,99,79,37,30.04,29.93,8,2,14,0.12
2013-6-12,92,80,69,73,69,60,99,72,46,30.00,29.74,11,2,18,0.05
2013-6-13,79,70,62,70,60,46,99,74,32,30.05,29.70,17,3,30,1.65
2013-6-14,82,68,57,61,55,48,97,68,33,30.16,30.03,5,1,9,0.00
2013-6-15,80,71,61,64,59,54,90,67,42,30.18,30.01,4,1,13,0.00
2013-6-16,80,73,67,68,64,62,99,75,57,30.06,29.99,14,3,24,0.21
2013-6-17,89,77,67,72,62,46,99,68,24,30.04,29.95,5,1,9,0.00
2013-6-18,83,74,65,67,61,53,95,65,39,30.09,29.95,8,2,13,0.00
2013-6-19,82,70,59,59,53,46,95,58,29,30.20,30.09,6,2,11,0.00
2013-6-20,90,76,61,59,54,46,80,51,22,30.26,30.19,5,1,9,0.00
2013-6-21,90,78,66,63,56,45,71,52,21,30.27,30.10,9,1,17,0.00
2013-6-22,90,78,71,69,65,58,89,66,35,30.21,30.10,10,2,19,0.00
2013-6-23,90,75,67,70,66,57,99,76,35,30.18,30.10,9,2,21,0.00
2013-6-24,90,78,69,70,66,58,98,70,36,30.20,30.06,12,2,30,0.01
2013-6-25,91,80,70,71,68,62,97,69,39,30.09,29.93,14,3,29,0.05
2013-6-26,87,76,68,72,68,62,99,78,49,30.00,29.81,9,2,19,0.09
2013-6-27,87,76,69,73,69,65,99,79,50,29.87,29.77,10,2,18,0.18
2013-6-28,84,75,67,69,62,52,89,66,36,29.78,29.67,11,3,20,0.04
2013-6-29,72,66,63,68,64,62,99,94,72,29.77,29.66,4,1,11,0.63
2013-6-30,75,67,62,66,63,59,99,87,65,29.98,29.76,9,2,17,0.48
2013-7-1,72,67,64,63,60,58,91,79,70,30.06,29.95,8,3,15,0.00
2013-7-2,79,66,60,68,63,58,99,89,60,30.09,30.03,7,2,11,1.00
2013-7-3,84,71,61,71,62,57,99,77,42,30.17,30.07,9,2,17,0.01
2013-7-4,78,70,62,70,65,60,99,88,53,30.22,30.14,4,0,6,0.27
2013-7-5,83,74,66,71,66,62,99,79,50,30.21,30.13,4,1,8,0.00
2013-7-6,77,72,68,71,68,64,99,90,68,30.19,30.10,8,1,12,0.00
2013-7-7,85,74,65,69,66,60,99,79,43,30.17,30.09,6,1,11,0.00
2013-7-8,87,78,70,71,68,65,92,73,53,30.19,30.08,10,2,19,0.00
2013-7-9,90,82,76,74,71,69,82,71,51,30.13,30.02,8,3,15,0.00
2013-7-10,87,78,69,77,71,60,99,78,56,30.09,29.90,11,2,36,0.26
2013-7-11,80,70,61,60,55,48,84,62,34,30.14,30.04,9,2,15,0.00
2013-7-12,80,70,58,61,55,49,89,63,35,30.20,30.12,8,1,13,0.00
2013-7-13,85,73,60,66,61,57,93,69,44,30.23,30.17,8,2,14,0.00
2013-7-14,90,79,66,72,66,62,94,68,41,30.29,30.22,5,1,11,0.00
2013-7-15,92,82,72,73,69,64,97,69,39,30.38,30.28,6,1,11,0.00
2013-7-16,92,82,70,74,70,66,99,71,45,30.42,30.35,4,0,7,0.00
2013-7-17,94,83,71,74,70,65,98,70,40,30.42,30.27,7,1,9,0.00
2013-7-18,95,84,73,74,70,63,97,67,36,30.30,30.10,6,1,10,0.00
2013-7-19,93,84,75,75,71,66,92,67,43,30.12,29.94,10,3,21,0.00
2013-7-20,80,76,70,72,70,66,98,81,69,30.00,29.91,8,2,22,0.20
2013-7-21,87,76,67,74,69,65,99,79,49,30.06,29.96,4,1,9,0.00
2013-7-22,84,75,68,71,68,63,99,79,50,29.99,29.86,5,1,14,0.07
2013-7-23,86,75,62,72,66,54,97,76,46,29.98,29.83,11,3,19,0.00
2013-7-24,74,64,54,55,52,47,92,67,40,30.11,29.97,8,2,14,0.00
2013-7-25,78,66,52,56,52,47,97,64,33,30.19,30.10,7,1,12,0.00
2013-7-26,82,69,55,59,55,48,96,64,31,30.18,30.01,7,1,14,0.00
2013-7-27,77,70,59,67,58,47,98,69,39,30.02,29.92,11,3,20,0.05
2013-7-28,71,62,50,50,47,42,87,60,36,30.12,29.99,12,3,22,0.00
2013-7-29,79,66,56,56,51,46,86,61,37,30.26,30.11,8,2,13,0.00
2013-7-30,78,68,54,64,57,53,99,71,44,30.29,30.18,5,1,8,0.00
2013-7-31,75,69,65,70,66,62,99,91,80,30.18,30.01,6,1,12,0.14
2013-8-1,82,71,63,68,60,48,99,71,32,30.08,30.01,11,2,23,0.00
2013-8-2,84,70,58,62,58,53,91,67,41,30.07,29.99,13,2,23,0.00
2013-8-3,84,72,61,69,62,52,99,74,39,30.16,30.01,7,1,12,0.56
2013-8-4,79,66,54,57,53,47,91,64,33,30.26,30.15,5,1,11,0.00
2013-8-5,80,68,61,64,58,51,99,74,37,30.20,30.02,5,1,11,0.15
2013-8-6,82,72,63,69,64,61,96,79,61,30.05,29.97,4,1,12,0.00
2013-8-7,86,77,70,74,70,67,99,83,53,30.00,29.93,6,1,14,0.00
2013-8-8,77,73,68,74,71,67,99,94,82,30.04,29.98,5,2,10,0.02
2013-8-9,84,74,68,70,66,57,99,77,41,30.12,30.00,5,1,9,0.00
2013-8-10,86,76,68,66,64,60,92,70,43,30.19,30.11,7,1,12,0.00
2013-8-11,85,73,62,72,64,58,99,77,42,30.20,30.13,6,1,10,0.00
2013-8-12,87,74,64,68,64,58,99,74,40,30.17,29.96,7,1,11,0.00
2013-8-13,74,67,55,68,56,40,99,71,32,30.18,29.95,8,2,14,0.02
2013-8-14,72,59,48,49,46,40,95,66,33,30.29,30.17,7,1,13,0.00
2013-8-15,75,61,47,54,47,42,97,65,30,30.26,30.18,4,1,9,0.00
2013-8-16,75,65,56,56,52,47,89,66,38,30.26,30.19,4,1,8,0.01
2013-8-17,80,68,58,58,54,47,82,63,32,30.29,30.22,6,1,11,0.00
2013-8-18,85,71,57,64,56,49,99,66,31,30.27,30.17,5,1,8,0.00
2013-8-19,88,72,60,63,59,53,93,66,32,30.22,30.14,6,1,10,0.00
2013-8-20,89,75,62,65,60,53,98,66,30,30.25,30.15,6,1,11,0.00
2013-8-21,90,77,67,70,64,58,92,67,35,30.23,30.11,6,1,10,0.00
2013-8-22,80,73,68,72,67,64,95,80,63,30.19,30.08,5,1,12,0.13
2013-8-23,84,70,61,70,63,57,99,82,41,30.23,30.14,5,1,11,0.00
2013-8-24,86,71,56,61,53,29,99,61,14,30.36,30.23,4,1,10,0.00
2013-8-25,91,75,59,61,56,47,94,57,23,30.39,30.28,7,1,11,0.00
2013-8-26,90,77,66,72,63,56,83,63,40,30.32,30.15,9,2,16,0.00
2013-8-27,93,80,72,73,70,65,96,73,41,30.16,30.02,8,2,17,0.00
2013-8-28,90,81,73,73,70,65,96,70,50,30.07,29.98,9,3,19,0.00
2013-8-29,89,77,69,76,68,60,99,77,40,30.14,30.07,5,1,11,0.00
2013-8-30,94,79,65,72,67,60,99,71,36,30.08,29.88,8,1,11,0.00
2013-8-31,87,75,68,72,68,64,97,79,46,29.94,29.84,6,2,11,0.24
2013-9-1,84,74,68,72,70,68,99,86,62,29.90,29.85,7,1,12,0.09
2013-9-2,85,73,63,72,64,50,99,76,32,30.02,29.84,7,2,14,0.00
2013-9-3,76,63,51,59,52,49,99,71,41,30.15,30.01,6,1,11,0.00
2013-9-4,84,67,52,59,54,49,99,68,30,30.23,30.13,8,1,14,0.00
2013-9-5,85,70,60,61,57,48,93,65,37,30.28,30.19,5,1,10,0.00
2013-9-6,86,68,52,53,46,34,84,50,16,30.32,30.15,5,1,8,0.00
2013-9-7,89,75,63,63,56,50,70,54,30,30.16,30.01,8,2,16,0.00
2013-9-8,88,76,64,67,64,61,96,69,41,30.08,30.01,6,2,12,0.00
2013-9-9,94,78,66,71,66,62,98,71,35,30.08,29.99,8,2,15,0.00
2013-9-10,98,85,75,74,65,49,90,58,20,30.17,30.05,8,3,15,0.00
2013-9-11,96,83,73,72,61,48,90,54,20,30.20,30.07,10,2,24,0.00
2013-9-12,84,73,62,72,60,41,99,68,28,30.09,29.94,10,2,17,0.38
2013-9-13,68,58,50,52,43,34,92,61,29,30.19,30.06,9,2,16,0.00
2013-9-14,74,56,40,45,34,13,96,54,10,30.27,30.16,6,1,11,0.00
2013-9-15,78,61,49,58,44,31,97,60,19,30.20,30.07,8,2,14,0.22
2013-9-16,64,59,50,57,53,48,99,83,60,30.37,30.17,8,2,11,0.02
2013-9-17,74,59,46,51,47,43,99,70,33,30.40,30.22,6,2,11,0.00
2013-9-18,84,68,59,64,54,48,81,63,34,30.23,30.08,4,1,9,0.00
2013-9-19,84,71,64,72,67,64,99,88,55,30.14,29.98,7,2,14,1.91
2013-9-20,79,71,67,72,69,66,99,93,67,30.02,29.87,8,2,16,0.39
2013-9-21,72,62,51,66,50,36,99,71,28,29.99,29.84,11,2,20,0.06
2013-9-22,69,56,46,51,43,34,99,68,28,30.10,29.99,7,1,13,0.00
2013-9-23,72,57,43,47,42,36,98,64,28,30.19,30.09,6,2,12,0.00
2013-9-24,75,59,43,48,44,38,97,63,27,30.16,29.99,6,2,11,0.00
2013-9-25,78,63,49,52,46,35,93,59,22,30.02,29.95,6,1,11,0.00
2013-9-26,80,62,49,59,49,41,99,68,25,30.16,30.01,5,1,11,0.00
2013-9-27,83,64,48,52,42,20,93,53,10,30.25,30.16,6,1,9,0.00
2013-9-28,85,67,50,54,48,43,93,57,24,30.24,30.08,7,1,13,0.00
2013-9-29,66,62,55,63,59,54,99,90,66,30.10,30.05,7,1,11,0.26
2013-9-30,77,63,55,68,57,50,99,83,40,30.09,29.99,7,1,15,0.01
2013-10-1,76,66,60,66,61,58,99,85,54,30.13,30.05,8,2,13,0.00
2013-10-2,81,69,62,72,65,62,99,90,58,30.18,30.09,3,1,5,0.00
2013-10-3,83,72,65,71,65,60,99,80,47,30.12,30.01,11,2,17,0.01
2013-10-4,85,74,68,69,66,62,99,78,48,30.12,30.05,7,2,14,0.00
2013-10-5,78,71,66,73,69,66,99,95,79,30.10,29.93,7,2,14,0.69
2013-10-6,66,60,47,66,57,38,99,91,59,29.97,29.80,13,3,21,1.00
2013-10-7,64,51,44,47,43,38,99,76,40,30.21,29.88,11,3,19,0.06
2013-10-8,73,57,46,52,44,36,99,68,27,30.32,30.20,5,1,10,0.00
2013-10-9,76,59,44,49,42,34,93,59,22,30.32,30.22,5,1,11,0.00
2013-10-10,78,59,44,52,42,28,99,61,17,30.26,30.14,5,0,8,0.00
2013-10-11,81,61,44,51,43,31,96,60,19,30.19,30.08,4,0,8,0.00
2013-10-12,81,64,50,60,50,40,99,66,24,30.19,30.08,6,1,12,0.04
2013-10-13,72,61,49,62,41,23,91,54,16,30.42,30.18,8,2,14,0.00
2013-10-14,71,53,40,48,40,30,98,65,22,30.42,30.26,6,1,11,0.00
2013-10-15,66,58,48,64,55,42,99,91,72,30.26,29.96,6,2,12,0.01
2013-10-16,64,56,44,64,46,38,99,71,46,30.04,29.94,11,4,19,0.01
2013-10-17,52,46,41,50,43,39,99,88,70,30.03,29.93,11,2,21,0.12
2013-10-18,65,51,43,47,41,33,99,74,30,30.05,29.96,12,3,20,0.00
2013-10-19,53,45,41,42,37,27,99,75,37,30.03,29.93,11,2,19,0.26
2013-10-20,65,51,41,39,36,32,80,57,30,30.03,29.96,10,3,21,0.00
2013-10-21,58,49,38,47,40,25,88,70,56,30.06,29.95,9,4,16,0.00
2013-10-22,51,38,30,37,27,19,98,69,29,30.09,29.93,8,2,15,0.08
2013-10-23,46,38,32,38,32,22,99,79,39,30.09,29.90,13,3,21,0.22
2013-10-24,43,38,34,33,28,22,83,67,44,30.33,30.08,8,3,17,0.00
2013-10-25,50,38,28,28,22,15,82,57,26,30.48,30.28,11,3,16,0.00
2013-10-26,55,43,35,34,27,22,70,53,36,30.28,29.96,14,4,24,0.00
2013-10-27,57,42,31,32,27,19,88,60,23,30.17,30.09,9,1,13,0.00
2013-10-28,62,44,30,36,28,16,91,59,17,30.38,30.14,3,0,5,0.00
2013-10-29,58,46,35,42,37,30,99,73,41,30.42,30.26,4,1,8,0.00
2013-10-30,62,55,49,60,54,42,99,95,74,30.25,30.08,3,1,4,0.02
2013-10-31,84,67,56,70,61,55,99,86,45,29.89,29.27,17,4,22,2.04
2013-11-1,54,50,45,54,42,39,99,74,62,29.93,29.42,16,5,21,0.01
2013-11-2,53,46,42,44,40,34,99,82,50,30.42,29.91,11,4,18,0.00
2013-11-3,55,43,34,42,36,27,99,78,35,30.73,30.41,5,2,10,0.00
2013-11-4,55,47,40,40,36,32,81,65,45,30.74,30.60,6,2,12,0.00
2013-11-5,58,52,47,48,42,37,89,68,51,30.76,30.43,7,2,13,0.01
2013-11-6,58,52,42,56,46,38,99,80,53,30.44,30.12,12,5,21,0.18
2013-11-7,48,40,32,40,29,17,92,68,29,30.63,30.38,13,4,23,0.00
2013-11-8,52,39,29,32,27,21,95,67,29,30.73,30.46,6,2,14,0.00
2013-11-9,62,50,39,37,30,22,64,48,33,30.48,30.21,14,5,30,0.00
2013-11-10,49,41,34,35,28,24,75,61,39,30.72,30.38,11,4,19,0.00
2013-11-11,51,41,29,38,31,26,99,68,40,30.74,30.35,11,4,20,0.02
2013-11-12,34,29,24,27,20,16,92,70,50,31.14,30.74,8,3,14,0.02
2013-11-13,41,29,19,19,14,6,86,57,24,31.13,30.72,11,3,19,0.00
2013-11-14,55,41,30,17,10,-4,59,33,10,30.72,30.39,9,4,20,0.00
2013-11-15,53,44,39,36,20,11,78,39,22,30.42,30.32,9,3,18,0.00
2013-11-16,60,51,42,58,48,36,99,90,78,30.37,29.95,13,6,28,0.00
2013-11-17,64,58,47,63,54,38,99,87,53,30.00,29.40,25,9,45,0.83
2013-11-18,47,42,34,38,31,25,85,65,43,30.56,29.97,20,9,35,0.00
2013-11-19,42,34,28,27,25,23,82,69,50,30.76,30.56,7,2,11,0.00
2013-11-20,47,37,27,31,26,22,87,67,44,30.75,30.53,10,3,14,0.00
2013-11-21,49,46,43,49,42,29,99,86,52,30.66,30.50,6,2,11,0.47
2013-11-22,50,42,32,49,40,29,99,92,77,30.88,30.46,10,4,17,0.12
2013-11-23,32,27,21,29,18,9,91,72,48,31.10,30.80,14,6,24,0.00
2013-11-24,27,20,14,14,8,-6,77,59,24,31.21,30.93,8,3,14,0.00
2013-11-25,33,28,19,17,11,7,63,50,35,30.94,30.46,8,3,17,0.00
2013-11-26,36,32,28,27,22,17,83,67,55,30.50,30.24,9,3,17,0.00
2013-11-27,28,24,19,23,15,10,83,70,49,30.66,30.27,14,6,24,0.00
2013-11-28,36,26,19,15,11,5,71,53,27,30.88,30.58,12,3,21,0.00
2013-11-29,38,27,17,21,16,12,82,64,40,31.12,30.87,7,2,9,0.00
2013-11-30,52,37,27,24,21,18,73,55,27,30.94,30.45,9,2,14,0.00
2013-12-1,49,40,33,32,27,21,81,60,45,30.45,30.22,8,2,12,0.00
2013-12-2,44,37,30,38,32,27,99,84,64,30.24,29.95,7,2,13,0.04
2013-12-3,50,43,36,49,42,36,99,97,93,30.06,29.92,9,3,17,0.01
2013-12-4,60,52,42,59,52,42,99,99,94,30.02,29.77,9,4,18,0.00
2013-12-5,59,37,24,57,32,18,97,82,66,30.55,29.84,14,7,23,0.00
2013-12-6,28,25,21,22,19,14,93,78,71,30.89,30.51,7,3,11,0.00
2013-12-7,26,19,12,15,10,7,80,68,50,31.13,30.88,7,2,11,0.00
2013-12-8,28,23,17,28,18,10,99,81,65,31.01,30.26,12,4,21,0.00
2013-12-9,29,24,18,29,18,6,99,77,58,30.58,30.24,17,7,28,0.00
2013-12-10,28,18,9,10,6,0,72,58,41,30.74,30.43,16,6,30,0.00
2013-12-11,27,18,8,19,10,0,78,71,60,31.01,30.66,13,3,22,0.00
2013-12-12,24,12,1,0,-6,-13,71,47,19,31.05,30.68,12,3,24,0.00
2013-12-13,33,24,15,30,11,-3,97,57,42,30.68,30.42,7,2,13,0.00
2013-12-14,34,30,24,34,30,21,99,98,90,30.45,29.89,14,1,14,0.00
2013-12-15,27,20,14,25,15,7,94,81,69,30.42,30.16,0,0,0,0.00
2013-12-16,26,19,14,26,16,10,99,86,72,30.46,30.26,0,0,0,0.00
2013-12-17,28,23,18,26,21,16,99,90,80,30.45,30.27,11,2,17,0.00
2013-12-18,33,25,14,17,13,8,83,63,42,30.63,30.25,11,5,21,0.02
2013-12-19,46,41,32,38,30,16,79,65,50,30.29,30.10,10,3,20,0.01
2013-12-20,58,50,44,57,49,38,99,94,75,30.11,29.92,11,4,21,0.26
2013-12-21,53,39,35,53,39,35,99,99,95,30.05,29.57,9,3,17,1.68
2013-12-22,42,37,31,42,36,29,99,96,91,30.38,29.39,15,6,34,0.04
2013-12-23,31,25,13,29,19,3,93,78,62,30.86,30.38,12,8,24,0.00
2013-12-24,20,12,4,10,4,-3,75,69,59,31.05,30.85,14,5,22,0.00
2013-12-25,29,24,17,23,14,9,79,67,59,30.90,30.46,13,4,21,0.00
2013-12-26,34,28,20,28,18,10,96,69,49,30.74,30.44,16,7,25,0.00
2013-12-27,38,38,37,29,28,26,70,68,64,30.59,30.53,13,7,14,0.00
2013-12-28,54,42,35,30,28,25,76,61,34,30.53,30.20,17,6,17,0.00
2013-12-29,44,35,26,32,27,22,99,73,56,30.36,29.98,22,8,22,0.00
2013-12-30,26,20,16,23,14,8,93,76,63,30.66,30.36,20,7,20,0.00
2013-12-31,27,21,16,18,12,8,82,68,53,30.78,30.49,21,8,21,0.00
2014-1-1,32,24,20,24,19,14,91,81,71,30.64,30.37,11,5,11,0.00
2014-1-2,122,15,3,100,9,-100,93,80,2,30.73,30.22,54,8,54,0.00